Cincinnati, OH

4:22 PM EDT on August 26, 2016 (GMT -0400)
Newport Aquarium | | Change Station
Active Advisory: Special Statement

Elev 499 ft 39.09 °N, 84.50 °W | Updated 16 seconds ago

Mostly Cloudy
Mostly Cloudy
97.1 °F
Feels Like 103 °F
N
1.0
Wind Variable Wind from North
Gusts 7.0 mph

Today
High -- | Low -- °F
--% Chance of Precip.
Yesterday
High -- | Low -- °F
Precip. -- in
Pressure 30.06 in
Visibility 10.0 miles
Clouds Few 4200 ft
Mostly Cloudy 11000 ft
Heat Index 103 °F
Dew Point 69 °F
Humidity 40%
Rainfall 0.00 in
Snow Depth Not available.
7:01 AM 8:16 PM
Waning Crescent, 31% visible
METAR KLUK 261953Z 17005KT 10SM FEW042 BKN110 32/24 A3007 RMK AO2 SLP177 T03220239
Pressure 30.06 in
Visibility 10.0 miles
Clouds Few 4200 ft
Mostly Cloudy 11000 ft
Heat Index 103 °F
Dew Point 69 °F
Humidity 40%
Rainfall 0.00 in
Snow Depth Not available.
7:01 AM 8:16 PM
Waning Crescent, 31% visible
METAR KLUK 261953Z 17005KT 10SM FEW042 BKN110 32/24 A3007 RMK AO2 SLP177 T03220239

10-Day Weather Forecast

Almanac

Astronomy

Aug. 26, 2016 Rise Set
Actual Time
Civil Twilight
Nautical Twilight
Astronomical Twilight
Moon
Length of Visible Light
Length of Day
Tomorrow will be .
, % of the Moon is Illuminated

Today's Extremes

State Highs State Lows

Community

WunderPhotos

Upload Photos

1,935,192 photos uploaded!

WunderBlog® & News

Nearby

Air Quality

  Air Quality AQ Index Pollutant
Not available.

Snow Depth

Station Depth Elevation

Earthquake Activity

City Distance Mag. Time & Date
Minimum magnitude displayed is 2.5.

Coastal Water Temperatures

Place Temperature

Stations

Nearby Weather Stations

Station Location Temp. Windchill Dew Point Humidity Wind Precip. Elev Updated Type
                   

Watches & Warnings

Special Statement
Issued: 6:12 AM EDT Aug. 26, 2016 – National Weather Service

... Warm and humid conditions to continue today...

Temperatures in the upper 80s to around 90 degrees will combine
with high humidities to produce heat indices in the mid and upper
90s this afternoon.

If possible... spend more time in air conditioned or well
ventilated places this afternoon. If you will be outside... wear
light weight and loose fitting clothing and drink plenty of water.


AR

612 am EDT Fri Aug 26 2016

... Warm and humid conditions to continue today...

Temperatures in the upper 80s to around 90 degrees will combine
with high humidities to produce heat indices in the mid and upper
90s this afternoon.

If possible... spend more time in air conditioned or well
ventilated places this afternoon. If you will be outside... wear
light weight and loose fitting clothing and drink plenty of water.


AR